Wilson Algeciras — 9HA2471 — position and weather

sailwx.info

Track history (hours):
 
Tides and Currents Weather Stations Pressure Air Temp Water Temp Dewpoint Dewpoint Depression Visibility Wind Speed Wind Dir Waves Ship Positions

Wilson Algeciras

Last reported at 2015-Mar-29 09:25 UTC. Time now 2015-Mar-29 16:03 UTC.
Position N 39°01' E 004°09'.

Length 88 m; draft 4.1 m.

Type: Cargo ship. MMSI: 248689000.

Date/timePositionNaut miles runAvg speedWind from/ knotsBaromVisibWave heightAir tempDewpointWater temp
2015-Mar-29 09:25N 39°01' E 004°09'9 9.5
2015-Mar-29 08:29N 39°01' E 003°58'9 9.6
2015-Mar-29 07:33N 39°02' E 003°46'1010.1
2015-Mar-29 06:33N 39°02' E 003°34'1010.0
2015-Mar-29 05:33N 39°03' E 003°21'10 9.6
2015-Mar-29 04:33N 39°04' E 003°08'10 9.6
2015-Mar-29 03:33N 39°04' E 002°56'10 9.9
2015-Mar-29 02:33N 39°05' E 002°43'1010.2
2015-Mar-29 01:33N 39°06' E 002°30'1010.1
2015-Mar-29 00:33N 39°07' E 002°17'1010.0
2015-Mar-28 23:33N 39°08' E 002°04'10 9.9
2015-Mar-28 22:33N 39°09' E 001°52'1010.2
2015-Mar-28 21:33N 39°10' E 001°38'1010.1
2015-Mar-28 20:33N 39°10' E 001°25'1010.1
2015-Mar-28 19:33N 39°09' E 001°12'2010.1
2015-Mar-28 17:34N 39°06' E 000°47'68 3.5
2015-Mar-27 22:15N 38°09' W 000°01'6 8.8
2015-Mar-27 21:33N 38°04' W 000°05'9 9.1
2015-Mar-27 20:33N 37°56' W 000°11'9 9.3
2015-Mar-27 19:34N 37°48' W 000°18'9 9.0
2015-Mar-27 18:34N 37°41' W 000°24'9 9.2
2015-Mar-27 17:34N 37°33' W 000°31'10 9.5
2015-Mar-27 16:33N 37°27' W 000°40'9 9.0
2015-Mar-27 15:34N 37°21' W 000°48'10 9.9
2015-Mar-27 14:33N 37°14' W 000°58'10 9.9
2015-Mar-27 13:32N 37°08' W 001°07'9 9.6
2015-Mar-27 12:33N 37°02' W 001°16'199 8.9
2015-Mar-26 14:13N 35°60' W 005°12'710.9
2015-Mar-26 13:33N 35°59' W 005°21'233 7.9
2015-Mar-25 08:04N 37°34' W 009°46'47 8.4
2015-Mar-25 02:33N 38°20' W 009°59'8 8.4
2015-Mar-25 01:33N 38°28' W 010°01'9 8.5
2015-Mar-25 00:30N 38°36' W 010°04'8 8.5
2015-Mar-24 23:31N 38°44' W 010°06'  
2015-Mar-20 15:32N 50°33' E 000°03'1111.1
2015-Mar-20 14:30N 50°36' E 000°20'1010.5
2015-Mar-20 13:34N 50°39' E 000°35'10 9.5
2015-Mar-20 12:33N 50°44' E 000°47'8 8.3
2015-Mar-20 11:34N 50°49' E 000°58'11 7.8
2015-Mar-20 10:07N 50°56' E 001°12'5 8.3
2015-Mar-20 09:31N 50°59' E 001°18'1010.5
2015-Mar-20 08:33N 51°05' E 001°31'1312.5
2015-Mar-20 07:34N 51°14' E 001°45'1212.2
2015-Mar-20 06:34N 51°25' E 001°53'1010.0
2015-Mar-20 05:34N 51°33' E 002°04'9 9.2
2015-Mar-20 04:33N 51°39' E 002°14'8 8.3
2015-Mar-20 03:33N 51°45' E 002°23'8 7.4
2015-Mar-20 02:31N 51°51' E 002°32'16 7.2
2015-Mar-20 00:21N 52°02' E 002°50'9 8.0
2015-Mar-19 23:14N 52°03' E 003°04'6 8.8
2015-Mar-19 22:32N 52°03' E 003°14'9 9.2
2015-Mar-19 21:33N 52°03' E 003°29'10 9.7
2015-Mar-19 20:33N 52°03' E 003°45'9 9.0
2015-Mar-19 19:33N 52°01' E 003°59'7 7.0
2015-Mar-19 18:32N 51°57' E 004°09'0 0.0
2015-Mar-19 17:32N 51°57' E 004°09'0 0.0
2015-Mar-19 16:32N 51°57' E 004°09'0 0.0
2015-Mar-19 15:33N 51°57' E 004°09'0 0.0
2015-Mar-19 14:33N 51°57' E 004°09'0 0.0
2015-Mar-19 13:33N 51°57' E 004°09'0 0.0
2015-Mar-19 12:33N 51°57' E 004°09'0 0.0
2015-Mar-19 11:33N 51°57' E 004°09'4 4.0
2015-Mar-19 10:33N 51°59' E 004°03'8 7.9
2015-Mar-19 09:34N 52°00' E 003°51'  
Track history (hours):
 
Tides and Currents Weather Stations Pressure Air Temp Water Temp Dewpoint Dewpoint Depression Visibility Wind Speed Wind Dir Waves Ship Positions

Wilson Algeciras

Last reported at 2015-Mar-29 09:25 UTC. Time now 2015-Mar-29 16:03 UTC.
Position N 39°01' E 004°09'.

Length 88 m; draft 4.1 m.

Type: Cargo ship. MMSI: 248689000.

Date/timePositionNaut miles runAvg speedWind from/ knotsBaromVisibWave heightAir tempDewpointWater temp
2015-Mar-29 09:25N 39°01' E 004°09'9 9.5
2015-Mar-29 08:29N 39°01' E 003°58'9 9.6
2015-Mar-29 07:33N 39°02' E 003°46'1010.1
2015-Mar-29 06:33N 39°02' E 003°34'1010.0
2015-Mar-29 05:33N 39°03' E 003°21'10 9.6
2015-Mar-29 04:33N 39°04' E 003°08'10 9.6
2015-Mar-29 03:33N 39°04' E 002°56'10 9.9
2015-Mar-29 02:33N 39°05' E 002°43'1010.2
2015-Mar-29 01:33N 39°06' E 002°30'1010.1
2015-Mar-29 00:33N 39°07' E 002°17'1010.0
2015-Mar-28 23:33N 39°08' E 002°04'10 9.9
2015-Mar-28 22:33N 39°09' E 001°52'1010.2
2015-Mar-28 21:33N 39°10' E 001°38'1010.1
2015-Mar-28 20:33N 39°10' E 001°25'1010.1
2015-Mar-28 19:33N 39°09' E 001°12'2010.1
2015-Mar-28 17:34N 39°06' E 000°47'68 3.5
2015-Mar-27 22:15N 38°09' W 000°01'6 8.8
2015-Mar-27 21:33N 38°04' W 000°05'9 9.1
2015-Mar-27 20:33N 37°56' W 000°11'9 9.3
2015-Mar-27 19:34N 37°48' W 000°18'9 9.0
2015-Mar-27 18:34N 37°41' W 000°24'9 9.2
2015-Mar-27 17:34N 37°33' W 000°31'10 9.5
2015-Mar-27 16:33N 37°27' W 000°40'9 9.0
2015-Mar-27 15:34N 37°21' W 000°48'10 9.9
2015-Mar-27 14:33N 37°14' W 000°58'10 9.9
2015-Mar-27 13:32N 37°08' W 001°07'9 9.6
2015-Mar-27 12:33N 37°02' W 001°16'199 8.9
2015-Mar-26 14:13N 35°60' W 005°12'710.9
2015-Mar-26 13:33N 35°59' W 005°21'233 7.9
2015-Mar-25 08:04N 37°34' W 009°46'47 8.4
2015-Mar-25 02:33N 38°20' W 009°59'8 8.4
2015-Mar-25 01:33N 38°28' W 010°01'9 8.5
2015-Mar-25 00:30N 38°36' W 010°04'8 8.5
2015-Mar-24 23:31N 38°44' W 010°06'  
2015-Mar-20 15:32N 50°33' E 000°03'1111.1
2015-Mar-20 14:30N 50°36' E 000°20'1010.5
2015-Mar-20 13:34N 50°39' E 000°35'10 9.5
2015-Mar-20 12:33N 50°44' E 000°47'8 8.3
2015-Mar-20 11:34N 50°49' E 000°58'11 7.8
2015-Mar-20 10:07N 50°56' E 001°12'5 8.3
2015-Mar-20 09:31N 50°59' E 001°18'1010.5
2015-Mar-20 08:33N 51°05' E 001°31'1312.5
2015-Mar-20 07:34N 51°14' E 001°45'1212.2
2015-Mar-20 06:34N 51°25' E 001°53'1010.0
2015-Mar-20 05:34N 51°33' E 002°04'9 9.2
2015-Mar-20 04:33N 51°39' E 002°14'8 8.3
2015-Mar-20 03:33N 51°45' E 002°23'8 7.4
2015-Mar-20 02:31N 51°51' E 002°32'16 7.2
2015-Mar-20 00:21N 52°02' E 002°50'9 8.0
2015-Mar-19 23:14N 52°03' E 003°04'6 8.8
2015-Mar-19 22:32N 52°03' E 003°14'9 9.2
2015-Mar-19 21:33N 52°03' E 003°29'10 9.7
2015-Mar-19 20:33N 52°03' E 003°45'9 9.0
2015-Mar-19 19:33N 52°01' E 003°59'7 7.0
2015-Mar-19 18:32N 51°57' E 004°09'0 0.0
2015-Mar-19 17:32N 51°57' E 004°09'0 0.0
2015-Mar-19 16:32N 51°57' E 004°09'0 0.0
2015-Mar-19 15:33N 51°57' E 004°09'0 0.0
2015-Mar-19 14:33N 51°57' E 004°09'0 0.0
2015-Mar-19 13:33N 51°57' E 004°09'0 0.0
2015-Mar-19 12:33N 51°57' E 004°09'0 0.0
2015-Mar-19 11:33N 51°57' E 004°09'4 4.0
2015-Mar-19 10:33N 51°59' E 004°03'8 7.9
2015-Mar-19 09:34N 52°00' E 003°51'  

Dump ship's entire track history